sensor_id;sensor_type;location;lat;lon;timestamp;pressure;altitude;pressure_sealevel;temperature;humidity
4326;BME280;58429;49.826;10.880;2023-12-29T00:00:42;98589;;;9.41;82.29
4326;BME280;58429;49.826;10.880;2023-12-29T00:01:42;98587;;;9.41;82.32
4326;BME280;58429;49.826;10.880;2023-12-29T00:02:42;98590;;;9.41;82.4
4326;BME280;58429;49.826;10.880;2023-12-29T00:03:42;98586;;;9.38;82.43
4326;BME280;58429;49.826;10.880;2023-12-29T00:04:42;98577;;;9.4;82.46
4326;BME280;58429;49.826;10.880;2023-12-29T00:05:42;98579;;;9.4;82.47
4326;BME280;58429;49.826;10.880;2023-12-29T00:06:42;98572;;;9.38;82.45
4326;BME280;58429;49.826;10.880;2023-12-29T00:07:42;98560;;;9.41;82.44
4326;BME280;58429;49.826;10.880;2023-12-29T00:08:42;98576;;;9.4;82.31
4326;BME280;58429;49.826;10.880;2023-12-29T00:09:42;98584;;;9.46;82.37
4326;BME280;58429;49.826;10.880;2023-12-29T00:10:42;98579;;;9.4;82.4
4326;BME280;58429;49.826;10.880;2023-12-29T00:11:42;98580;;;9.4;82.5
4326;BME280;58429;49.826;10.880;2023-12-29T00:12:42;98578;;;9.41;82.52
4326;BME280;58429;49.826;10.880;2023-12-29T00:13:42;98587;;;9.38;82.56
4326;BME280;58429;49.826;10.880;2023-12-29T00:14:42;98584;;;9.39;82.66
4326;BME280;58429;49.826;10.880;2023-12-29T00:15:42;98580;;;9.39;82.69
4326;BME280;58429;49.826;10.880;2023-12-29T00:16:42;98577;;;9.37;82.71
4326;BME280;58429;49.826;10.880;2023-12-29T00:17:42;98580;;;9.4;82.7
4326;BME280;58429;49.826;10.880;2023-12-29T00:18:42;98579;;;9.38;82.74
4326;BME280;58429;49.826;10.880;2023-12-29T00:19:42;98575;;;9.37;82.81
4326;BME280;58429;49.826;10.880;2023-12-29T00:20:42;98575;;;9.36;82.91
4326;BME280;58429;49.826;10.880;2023-12-29T00:21:42;98577;;;9.35;82.96
4326;BME280;58429;49.826;10.880;2023-12-29T00:22:42;98584;;;9.34;82.99
4326;BME280;58429;49.826;10.880;2023-12-29T00:23:42;98577;;;9.36;83
4326;BME280;58429;49.826;10.880;2023-12-29T00:24:42;98584;;;9.35;82.96
4326;BME280;58429;49.826;10.880;2023-12-29T00:25:42;98578;;;9.36;83.11
4326;BME280;58429;49.826;10.880;2023-12-29T00:26:42;98585;;;9.36;83.08
4326;BME280;58429;49.826;10.880;2023-12-29T00:27:42;98589;;;9.35;82.96
4326;BME280;58429;49.826;10.880;2023-12-29T00:28:42;98586;;;9.36;82.91
4326;BME280;58429;49.826;10.880;2023-12-29T00:29:42;98591;;;9.35;83.02
4326;BME280;58429;49.826;10.880;2023-12-29T00:30:42;98594;;;9.35;83.21
4326;BME280;58429;49.826;10.880;2023-12-29T00:31:42;98586;;;9.35;83.24
4326;BME280;58429;49.826;10.880;2023-12-29T00:32:42;98585;;;9.34;83.37
4326;BME280;58429;49.826;10.880;2023-12-29T00:33:42;98583;;;9.34;83.52
4326;BME280;58429;49.826;10.880;2023-12-29T00:34:42;98586;;;9.33;83.64
4326;BME280;58429;49.826;10.880;2023-12-29T00:35:42;98576;;;9.31;83.67
4326;BME280;58429;49.826;10.880;2023-12-29T00:36:42;98581;;;9.32;83.81
4326;BME280;58429;49.826;10.880;2023-12-29T00:37:42;98570;;;9.29;83.67
4326;BME280;58429;49.826;10.880;2023-12-29T00:38:42;98568;;;9.31;83.74
4326;BME280;58429;49.826;10.880;2023-12-29T00:39:42;98566;;;9.33;83.43
4326;BME280;58429;49.826;10.880;2023-12-29T00:40:42;98564;;;9.3;83.41
4326;BME280;58429;49.826;10.880;2023-12-29T00:41:42;98562;;;9.29;83.34
4326;BME280;58429;49.826;10.880;2023-12-29T00:42:42;98557;;;9.31;83.25
4326;BME280;58429;49.826;10.880;2023-12-29T00:43:42;98558;;;9.34;83.25
4326;BME280;58429;49.826;10.880;2023-12-29T00:44:42;98551;;;9.32;83.15
4326;BME280;58429;49.826;10.880;2023-12-29T00:45:42;98546;;;9.33;83.25
4326;BME280;58429;49.826;10.880;2023-12-29T00:46:42;98549;;;9.31;83.05
4326;BME280;58429;49.826;10.880;2023-12-29T00:47:42;98549;;;9.32;82.83
4326;BME280;58429;49.826;10.880;2023-12-29T00:48:42;98548;;;9.33;82.8
4326;BME280;58429;49.826;10.880;2023-12-29T00:49:42;98552;;;9.34;82.53
4326;BME280;58429;49.826;10.880;2023-12-29T00:50:42;98558;;;9.33;82.53
4326;BME280;58429;49.826;10.880;2023-12-29T00:51:43;98561;;;9.34;82.61
4326;BME280;58429;49.826;10.880;2023-12-29T00:52:42;98555;;;9.33;82.67
4326;BME280;58429;49.826;10.880;2023-12-29T00:53:42;98551;;;9.31;82.66
4326;BME280;58429;49.826;10.880;2023-12-29T00:54:42;98547;;;9.31;82.69
4326;BME280;58429;49.826;10.880;2023-12-29T00:55:42;98539;;;9.32;82.62
4326;BME280;58429;49.826;10.880;2023-12-29T00:56:44;98538;;;9.3;82.55
4326;BME280;58429;49.826;10.880;2023-12-29T00:57:43;98539;;;9.32;82.6
4326;BME280;58429;49.826;10.880;2023-12-29T00:58:42;98551;;;9.32;82.4
4326;BME280;58429;49.826;10.880;2023-12-29T00:59:42;98554;;;9.29;82.39
4326;BME280;58429;49.826;10.880;2023-12-29T01:00:42;98551;;;9.31;82.35
4326;BME280;58429;49.826;10.880;2023-12-29T01:01:42;98552;;;9.34;82.19
4326;BME280;58429;49.826;10.880;2023-12-29T01:02:42;98557;;;9.35;82.17
4326;BME280;58429;49.826;10.880;2023-12-29T01:03:42;98554;;;9.33;82.2
4326;BME280;58429;49.826;10.880;2023-12-29T01:04:42;98552;;;9.35;82.23
4326;BME280;58429;49.826;10.880;2023-12-29T01:05:43;98547;;;9.34;82.3
4326;BME280;58429;49.826;10.880;2023-12-29T01:06:42;98548;;;9.33;82.35
4326;BME280;58429;49.826;10.880;2023-12-29T01:07:42;98539;;;9.33;82.35
4326;BME280;58429;49.826;10.880;2023-12-29T01:08:42;98537;;;9.35;82.34
4326;BME280;58429;49.826;10.880;2023-12-29T01:09:42;98536;;;9.33;82.21
4326;BME280;58429;49.826;10.880;2023-12-29T01:10:42;98545;;;9.33;82.28
4326;BME280;58429;49.826;10.880;2023-12-29T01:11:42;98544;;;9.33;82.34
4326;BME280;58429;49.826;10.880;2023-12-29T01:12:42;98547;;;9.31;82.25
4326;BME280;58429;49.826;10.880;2023-12-29T01:13:42;98535;;;9.32;82.21
4326;BME280;58429;49.826;10.880;2023-12-29T01:14:42;98540;;;9.33;82.23
4326;BME280;58429;49.826;10.880;2023-12-29T01:15:43;98534;;;9.33;82.15
4326;BME280;58429;49.826;10.880;2023-12-29T01:16:42;98536;;;9.34;81.86
4326;BME280;58429;49.826;10.880;2023-12-29T01:17:42;98536;;;9.35;81.76
4326;BME280;58429;49.826;10.880;2023-12-29T01:18:43;98535;;;9.41;81.59
4326;BME280;58429;49.826;10.880;2023-12-29T01:19:42;98543;;;9.38;81.52
4326;BME280;58429;49.826;10.880;2023-12-29T01:20:42;98532;;;9.41;81.36
4326;BME280;58429;49.826;10.880;2023-12-29T01:21:43;98530;;;9.42;81.29
4326;BME280;58429;49.826;10.880;2023-12-29T01:22:42;98531;;;9.44;81.31
4326;BME280;58429;49.826;10.880;2023-12-29T01:23:42;98533;;;9.48;81.15
4326;BME280;58429;49.826;10.880;2023-12-29T01:24:42;98527;;;9.5;81.11
4326;BME280;58429;49.826;10.880;2023-12-29T01:25:42;98530;;;9.54;81.23
4326;BME280;58429;49.826;10.880;2023-12-29T01:26:42;98533;;;9.51;81.33
4326;BME280;58429;49.826;10.880;2023-12-29T01:27:42;98535;;;9.51;81.26
4326;BME280;58429;49.826;10.880;2023-12-29T01:28:42;98534;;;9.51;81.35
4326;BME280;58429;49.826;10.880;2023-12-29T01:29:42;98535;;;9.49;81.38
4326;BME280;58429;49.826;10.880;2023-12-29T01:30:44;98532;;;9.51;81.27
4326;BME280;58429;49.826;10.880;2023-12-29T01:31:47;98531;;;9.54;81.41
4326;BME280;58429;49.826;10.880;2023-12-29T01:32:42;98531;;;9.46;81.25
4326;BME280;58429;49.826;10.880;2023-12-29T01:33:43;98533;;;9.5;81.31
4326;BME280;58429;49.826;10.880;2023-12-29T01:34:42;98521;;;9.5;81.29
4326;BME280;58429;49.826;10.880;2023-12-29T01:35:42;98532;;;9.47;81.32
4326;BME280;58429;49.826;10.880;2023-12-29T01:36:42;98529;;;9.47;81.4
4326;BME280;58429;49.826;10.880;2023-12-29T01:37:42;98527;;;9.48;81.34
4326;BME280;58429;49.826;10.880;2023-12-29T01:38:42;98521;;;9.5;81.4
4326;BME280;58429;49.826;10.880;2023-12-29T01:39:42;98520;;;9.49;81.55
4326;BME280;58429;49.826;10.880;2023-12-29T01:40:43;98524;;;9.48;81.45
4326;BME280;58429;49.826;10.880;2023-12-29T01:41:42;98527;;;9.48;81.43
4326;BME280;58429;49.826;10.880;2023-12-29T01:42:42;98526;;;9.49;81.46
4326;BME280;58429;49.826;10.880;2023-12-29T01:44:43;98524;;;9.47;81.43
4326;BME280;58429;49.826;10.880;2023-12-29T01:44:47;98525;;;9.51;81.44
4326;BME280;58429;49.826;10.880;2023-12-29T01:45:43;98530;;;9.47;81.5
4326;BME280;58429;49.826;10.880;2023-12-29T01:46:43;98531;;;9.43;81.68
4326;BME280;58429;49.826;10.880;2023-12-29T01:47:42;98535;;;9.42;81.77
4326;BME280;58429;49.826;10.880;2023-12-29T01:48:43;98529;;;9.43;81.89
4326;BME280;58429;49.826;10.880;2023-12-29T01:49:43;98532;;;9.4;82.04
4326;BME280;58429;49.826;10.880;2023-12-29T01:50:42;98525;;;9.4;82.12
4326;BME280;58429;49.826;10.880;2023-12-29T01:51:44;98532;;;9.39;82.15
4326;BME280;58429;49.826;10.880;2023-12-29T01:52:42;98526;;;9.4;82.18
4326;BME280;58429;49.826;10.880;2023-12-29T01:53:43;98531;;;9.4;82.19
4326;BME280;58429;49.826;10.880;2023-12-29T01:54:42;98527;;;9.42;82.26
4326;BME280;58429;49.826;10.880;2023-12-29T01:55:42;98528;;;9.41;82.31
4326;BME280;58429;49.826;10.880;2023-12-29T01:56:42;98531;;;9.39;82.38
4326;BME280;58429;49.826;10.880;2023-12-29T01:57:42;98528;;;9.41;82.4
4326;BME280;58429;49.826;10.880;2023-12-29T01:58:42;98525;;;9.4;82.46
4326;BME280;58429;49.826;10.880;2023-12-29T01:59:42;98522;;;9.4;82.53
4326;BME280;58429;49.826;10.880;2023-12-29T02:00:42;98523;;;9.38;82.56
4326;BME280;58429;49.826;10.880;2023-12-29T02:01:42;98523;;;9.37;82.6
4326;BME280;58429;49.826;10.880;2023-12-29T02:02:42;98514;;;9.37;82.68
4326;BME280;58429;49.826;10.880;2023-12-29T02:03:42;98514;;;9.35;82.69
4326;BME280;58429;49.826;10.880;2023-12-29T02:04:42;98505;;;9.35;82.77
4326;BME280;58429;49.826;10.880;2023-12-29T02:05:42;98513;;;9.34;82.87
4326;BME280;58429;49.826;10.880;2023-12-29T02:06:42;98503;;;9.34;82.89
4326;BME280;58429;49.826;10.880;2023-12-29T02:07:42;98507;;;9.31;82.94
4326;BME280;58429;49.826;10.880;2023-12-29T02:08:42;98501;;;9.34;82.98
4326;BME280;58429;49.826;10.880;2023-12-29T02:09:42;98499;;;9.32;82.88
4326;BME280;58429;49.826;10.880;2023-12-29T02:10:42;98500;;;9.33;82.86
4326;BME280;58429;49.826;10.880;2023-12-29T02:11:42;98497;;;9.32;82.91
4326;BME280;58429;49.826;10.880;2023-12-29T02:12:42;98505;;;9.32;82.92
4326;BME280;58429;49.826;10.880;2023-12-29T02:13:42;98499;;;9.3;82.91
4326;BME280;58429;49.826;10.880;2023-12-29T02:14:42;98499;;;9.31;82.67
4326;BME280;58429;49.826;10.880;2023-12-29T02:15:42;98498;;;9.31;82.62
4326;BME280;58429;49.826;10.880;2023-12-29T02:16:44;98499;;;9.33;82.62
4326;BME280;58429;49.826;10.880;2023-12-29T02:17:44;98498;;;9.34;82.67
4326;BME280;58429;49.826;10.880;2023-12-29T02:18:42;98506;;;9.28;82.7
4326;BME280;58429;49.826;10.880;2023-12-29T02:19:43;98509;;;9.31;82.76
4326;BME280;58429;49.826;10.880;2023-12-29T02:20:42;98496;;;9.33;82.81
4326;BME280;58429;49.826;10.880;2023-12-29T02:21:42;98504;;;9.3;82.81
4326;BME280;58429;49.826;10.880;2023-12-29T02:22:42;98501;;;9.29;82.82
4326;BME280;58429;49.826;10.880;2023-12-29T02:23:42;98500;;;9.26;82.81
4326;BME280;58429;49.826;10.880;2023-12-29T02:24:44;98502;;;9.26;82.85
4326;BME280;58429;49.826;10.880;2023-12-29T02:25:42;98503;;;9.21;82.85
4326;BME280;58429;49.826;10.880;2023-12-29T02:26:43;98498;;;9.23;82.8
4326;BME280;58429;49.826;10.880;2023-12-29T02:27:45;98498;;;9.28;82.67
4326;BME280;58429;49.826;10.880;2023-12-29T02:28:43;98497;;;9.28;82.52
4326;BME280;58429;49.826;10.880;2023-12-29T02:29:43;98499;;;9.3;82.54
4326;BME280;58429;49.826;10.880;2023-12-29T02:30:43;98503;;;9.31;82.63
4326;BME280;58429;49.826;10.880;2023-12-29T02:31:42;98492;;;9.26;82.74
4326;BME280;58429;49.826;10.880;2023-12-29T02:32:43;98500;;;9.24;82.78
4326;BME280;58429;49.826;10.880;2023-12-29T02:33:42;98500;;;9.26;82.83
4326;BME280;58429;49.826;10.880;2023-12-29T02:34:42;98495;;;9.18;82.93
4326;BME280;58429;49.826;10.880;2023-12-29T02:35:43;98500;;;9.19;83.05
4326;BME280;58429;49.826;10.880;2023-12-29T02:36:42;98496;;;9.19;83.05
4326;BME280;58429;49.826;10.880;2023-12-29T02:37:42;98496;;;9.16;83.05
4326;BME280;58429;49.826;10.880;2023-12-29T02:38:42;98490;;;9.18;83.1
4326;BME280;58429;49.826;10.880;2023-12-29T02:39:42;98493;;;9.16;83.17
4326;BME280;58429;49.826;10.880;2023-12-29T02:40:42;98490;;;9.17;83.17
4326;BME280;58429;49.826;10.880;2023-12-29T02:41:42;98489;;;9.22;83.21
4326;BME280;58429;49.826;10.880;2023-12-29T02:42:46;98489;;;9.2;83.22
4326;BME280;58429;49.826;10.880;2023-12-29T02:43:42;98488;;;9.17;83.25
4326;BME280;58429;49.826;10.880;2023-12-29T02:44:42;98485;;;9.18;83.32
4326;BME280;58429;49.826;10.880;2023-12-29T02:45:42;98487;;;9.2;83.36
4326;BME280;58429;49.826;10.880;2023-12-29T02:46:42;98490;;;9.17;83.33
4326;BME280;58429;49.826;10.880;2023-12-29T02:47:42;98485;;;9.17;83.42
4326;BME280;58429;49.826;10.880;2023-12-29T02:48:42;98477;;;9.16;83.44
4326;BME280;58429;49.826;10.880;2023-12-29T02:49:42;98480;;;9.16;83.52
4326;BME280;58429;49.826;10.880;2023-12-29T02:50:42;98475;;;9.15;83.58
4326;BME280;58429;49.826;10.880;2023-12-29T02:51:42;98475;;;9.15;83.65
4326;BME280;58429;49.826;10.880;2023-12-29T02:52:42;98470;;;9.14;83.67
4326;BME280;58429;49.826;10.880;2023-12-29T02:53:42;98468;;;9.16;83.57
4326;BME280;58429;49.826;10.880;2023-12-29T02:54:42;98468;;;9.16;83.54
4326;BME280;58429;49.826;10.880;2023-12-29T02:55:42;98470;;;9.15;83.56
4326;BME280;58429;49.826;10.880;2023-12-29T02:56:42;98469;;;9.1;83.67
4326;BME280;58429;49.826;10.880;2023-12-29T02:57:42;98470;;;9.08;83.69
4326;BME280;58429;49.826;10.880;2023-12-29T02:58:42;98461;;;9.04;83.69
4326;BME280;58429;49.826;10.880;2023-12-29T02:59:42;98472;;;9.06;83.75
4326;BME280;58429;49.826;10.880;2023-12-29T03:00:42;98471;;;9.03;83.71
4326;BME280;58429;49.826;10.880;2023-12-29T03:01:42;98466;;;9.04;83.74
4326;BME280;58429;49.826;10.880;2023-12-29T03:02:42;98459;;;9.02;83.76
4326;BME280;58429;49.826;10.880;2023-12-29T03:03:42;98458;;;9.03;83.75
4326;BME280;58429;49.826;10.880;2023-12-29T03:04:42;98462;;;9.02;83.71
4326;BME280;58429;49.826;10.880;2023-12-29T03:05:42;98459;;;8.99;83.7
4326;BME280;58429;49.826;10.880;2023-12-29T03:06:42;98457;;;9.02;83.73
4326;BME280;58429;49.826;10.880;2023-12-29T03:07:42;98456;;;9.03;83.74
4326;BME280;58429;49.826;10.880;2023-12-29T03:08:42;98454;;;9;83.74
4326;BME280;58429;49.826;10.880;2023-12-29T03:09:42;98456;;;8.99;83.58
4326;BME280;58429;49.826;10.880;2023-12-29T03:10:42;98455;;;9.05;83.67
4326;BME280;58429;49.826;10.880;2023-12-29T03:11:42;98455;;;9.03;83.67
4326;BME280;58429;49.826;10.880;2023-12-29T03:12:43;98454;;;9.02;83.64
4326;BME280;58429;49.826;10.880;2023-12-29T03:13:42;98455;;;8.99;83.58
4326;BME280;58429;49.826;10.880;2023-12-29T03:14:43;98452;;;9.01;83.6
4326;BME280;58429;49.826;10.880;2023-12-29T03:15:48;98455;;;9;83.52
4326;BME280;58429;49.826;10.880;2023-12-29T03:16:42;98457;;;9;83.56
4326;BME280;58429;49.826;10.880;2023-12-29T03:17:42;98452;;;9;83.55
4326;BME280;58429;49.826;10.880;2023-12-29T03:18:42;98458;;;8.99;83.61
4326;BME280;58429;49.826;10.880;2023-12-29T03:19:42;98450;;;8.99;83.59
4326;BME280;58429;49.826;10.880;2023-12-29T03:20:42;98451;;;8.99;83.56
4326;BME280;58429;49.826;10.880;2023-12-29T03:21:42;98445;;;9;83.59
4326;BME280;58429;49.826;10.880;2023-12-29T03:22:42;98451;;;8.99;83.6
4326;BME280;58429;49.826;10.880;2023-12-29T03:23:42;98448;;;9;83.64
4326;BME280;58429;49.826;10.880;2023-12-29T03:24:42;98455;;;8.99;83.65
4326;BME280;58429;49.826;10.880;2023-12-29T03:25:42;98450;;;8.99;83.68
4326;BME280;58429;49.826;10.880;2023-12-29T03:26:42;98452;;;8.97;83.69
4326;BME280;58429;49.826;10.880;2023-12-29T03:27:42;98456;;;8.94;83.78
4326;BME280;58429;49.826;10.880;2023-12-29T03:28:42;98444;;;8.98;83.83
4326;BME280;58429;49.826;10.880;2023-12-29T03:29:42;98456;;;8.99;83.82
4326;BME280;58429;49.826;10.880;2023-12-29T03:30:42;98456;;;8.94;83.83
4326;BME280;58429;49.826;10.880;2023-12-29T03:31:42;98458;;;8.94;83.92
4326;BME280;58429;49.826;10.880;2023-12-29T03:32:42;98459;;;8.92;83.89
4326;BME280;58429;49.826;10.880;2023-12-29T03:33:43;98464;;;8.96;83.98
4326;BME280;58429;49.826;10.880;2023-12-29T03:34:42;98464;;;8.92;84.08
4326;BME280;58429;49.826;10.880;2023-12-29T03:35:42;98462;;;8.91;84.18
4326;BME280;58429;49.826;10.880;2023-12-29T03:36:42;98466;;;8.94;84.22
4326;BME280;58429;49.826;10.880;2023-12-29T03:37:42;98466;;;8.92;84.21
4326;BME280;58429;49.826;10.880;2023-12-29T03:38:42;98461;;;8.93;84.24
4326;BME280;58429;49.826;10.880;2023-12-29T03:39:43;98458;;;8.9;84.32
4326;BME280;58429;49.826;10.880;2023-12-29T03:40:42;98464;;;8.9;84.39
4326;BME280;58429;49.826;10.880;2023-12-29T03:41:42;98457;;;8.9;84.41
4326;BME280;58429;49.826;10.880;2023-12-29T03:42:42;98465;;;8.9;84.47
4326;BME280;58429;49.826;10.880;2023-12-29T03:43:42;98459;;;8.87;84.52
4326;BME280;58429;49.826;10.880;2023-12-29T03:44:42;98454;;;8.86;84.47
4326;BME280;58429;49.826;10.880;2023-12-29T03:45:42;98456;;;8.9;84.49
4326;BME280;58429;49.826;10.880;2023-12-29T03:46:43;98460;;;8.88;84.43
4326;BME280;58429;49.826;10.880;2023-12-29T03:47:42;98451;;;8.88;84.46
4326;BME280;58429;49.826;10.880;2023-12-29T03:48:42;98451;;;8.87;84.36
4326;BME280;58429;49.826;10.880;2023-12-29T03:49:42;98447;;;8.91;84.25
4326;BME280;58429;49.826;10.880;2023-12-29T03:50:42;98445;;;8.91;84.13
4326;BME280;58429;49.826;10.880;2023-12-29T03:51:42;98446;;;8.91;84.03
4326;BME280;58429;49.826;10.880;2023-12-29T03:52:42;98443;;;8.97;83.51
4326;BME280;58429;49.826;10.880;2023-12-29T03:53:42;98445;;;9;83.5
4326;BME280;58429;49.826;10.880;2023-12-29T03:54:42;98441;;;8.99;83.68
4326;BME280;58429;49.826;10.880;2023-12-29T03:55:43;98436;;;8.98;83.74
4326;BME280;58429;49.826;10.880;2023-12-29T03:56:42;98444;;;9.04;83.56
4326;BME280;58429;49.826;10.880;2023-12-29T03:57:42;98448;;;9;83.51
4326;BME280;58429;49.826;10.880;2023-12-29T03:58:42;98447;;;9.04;83.52
4326;BME280;58429;49.826;10.880;2023-12-29T03:59:42;98453;;;9.01;83.54
4326;BME280;58429;49.826;10.880;2023-12-29T04:00:42;98458;;;9;83.57
4326;BME280;58429;49.826;10.880;2023-12-29T04:01:42;98456;;;9.01;83.58
4326;BME280;58429;49.826;10.880;2023-12-29T04:02:42;98447;;;8.99;83.5
4326;BME280;58429;49.826;10.880;2023-12-29T04:03:43;98462;;;9.02;83.48
4326;BME280;58429;49.826;10.880;2023-12-29T04:04:43;98460;;;9.04;83.39
4326;BME280;58429;49.826;10.880;2023-12-29T04:05:42;98456;;;9.01;83.45
4326;BME280;58429;49.826;10.880;2023-12-29T04:06:42;98459;;;9.01;83.41
4326;BME280;58429;49.826;10.880;2023-12-29T04:07:42;98457;;;9.03;83.4
4326;BME280;58429;49.826;10.880;2023-12-29T04:08:43;98458;;;9;83.41
4326;BME280;58429;49.826;10.880;2023-12-29T04:09:42;98455;;;9.06;83.39
4326;BME280;58429;49.826;10.880;2023-12-29T04:10:42;98456;;;9.08;83.19
4326;BME280;58429;49.826;10.880;2023-12-29T04:11:43;98454;;;9.07;83.15
4326;BME280;58429;49.826;10.880;2023-12-29T04:12:42;98459;;;9.08;83.27
4326;BME280;58429;49.826;10.880;2023-12-29T04:13:42;98461;;;9.06;83.33
4326;BME280;58429;49.826;10.880;2023-12-29T04:14:42;98462;;;9.05;83.3
4326;BME280;58429;49.826;10.880;2023-12-29T04:15:42;98459;;;9.04;83.15
4326;BME280;58429;49.826;10.880;2023-12-29T04:16:42;98459;;;9.05;82.81
4326;BME280;58429;49.826;10.880;2023-12-29T04:17:42;98463;;;9.07;82.89
4326;BME280;58429;49.826;10.880;2023-12-29T04:18:42;98464;;;9.04;82.64
4326;BME280;58429;49.826;10.880;2023-12-29T04:19:43;98466;;;9.1;82.7
4326;BME280;58429;49.826;10.880;2023-12-29T04:20:42;98467;;;9.07;82.44
4326;BME280;58429;49.826;10.880;2023-12-29T04:21:42;98465;;;9.12;82.35
4326;BME280;58429;49.826;10.880;2023-12-29T04:22:42;98469;;;9.1;82.4
4326;BME280;58429;49.826;10.880;2023-12-29T04:23:42;98469;;;9.11;82.44
4326;BME280;58429;49.826;10.880;2023-12-29T04:24:43;98462;;;9.11;82.33
4326;BME280;58429;49.826;10.880;2023-12-29T04:25:42;98464;;;9.1;82.15
4326;BME280;58429;49.826;10.880;2023-12-29T04:26:42;98457;;;9.11;81.57
4326;BME280;58429;49.826;10.880;2023-12-29T04:27:43;98460;;;9.12;81.7
4326;BME280;58429;49.826;10.880;2023-12-29T04:28:42;98456;;;9.13;81.77
4326;BME280;58429;49.826;10.880;2023-12-29T04:29:43;98458;;;9.1;81.37
4326;BME280;58429;49.826;10.880;2023-12-29T04:30:42;98460;;;9.11;81.37
4326;BME280;58429;49.826;10.880;2023-12-29T04:31:42;98454;;;9.1;81.26
4326;BME280;58429;49.826;10.880;2023-12-29T04:32:42;98456;;;9.14;81.07
4326;BME280;58429;49.826;10.880;2023-12-29T04:33:42;98450;;;9.1;81.1
4326;BME280;58429;49.826;10.880;2023-12-29T04:34:43;98454;;;9.12;80.89
4326;BME280;58429;49.826;10.880;2023-12-29T04:35:42;98464;;;9.12;80.96
4326;BME280;58429;49.826;10.880;2023-12-29T04:36:42;98464;;;9.1;80.86
4326;BME280;58429;49.826;10.880;2023-12-29T04:37:44;98461;;;9.07;80.88
4326;BME280;58429;49.826;10.880;2023-12-29T04:38:42;98463;;;9.1;80.81
4326;BME280;58429;49.826;10.880;2023-12-29T04:39:42;98462;;;9.1;80.95
4326;BME280;58429;49.826;10.880;2023-12-29T04:40:42;98457;;;9.08;81.08
4326;BME280;58429;49.826;10.880;2023-12-29T04:41:43;98463;;;9.04;81.19
4326;BME280;58429;49.826;10.880;2023-12-29T04:42:42;98465;;;9.03;81.15
4326;BME280;58429;49.826;10.880;2023-12-29T04:43:43;98459;;;9.06;81.07
4326;BME280;58429;49.826;10.880;2023-12-29T04:44:42;98470;;;9.07;81.05
4326;BME280;58429;49.826;10.880;2023-12-29T04:45:43;98460;;;8.97;80.97
4326;BME280;58429;49.826;10.880;2023-12-29T04:46:42;98463;;;8.99;81.06
4326;BME280;58429;49.826;10.880;2023-12-29T04:47:43;98463;;;8.98;81.12
4326;BME280;58429;49.826;10.880;2023-12-29T04:48:43;98463;;;8.99;81.18
4326;BME280;58429;49.826;10.880;2023-12-29T04:49:42;98466;;;8.96;81.19
4326;BME280;58429;49.826;10.880;2023-12-29T04:50:43;98478;;;8.92;81.1
4326;BME280;58429;49.826;10.880;2023-12-29T04:51:43;98473;;;8.97;81.18
4326;BME280;58429;49.826;10.880;2023-12-29T04:52:42;98480;;;8.91;81.24
4326;BME280;58429;49.826;10.880;2023-12-29T04:53:43;98473;;;8.88;81.32
4326;BME280;58429;49.826;10.880;2023-12-29T04:54:43;98463;;;8.89;80.95
4326;BME280;58429;49.826;10.880;2023-12-29T04:55:42;98470;;;8.9;80.96
4326;BME280;58429;49.826;10.880;2023-12-29T04:56:43;98462;;;8.93;81.02
4326;BME280;58429;49.826;10.880;2023-12-29T04:57:42;98465;;;8.93;81.04
4326;BME280;58429;49.826;10.880;2023-12-29T04:58:42;98462;;;8.91;81.11
4326;BME280;58429;49.826;10.880;2023-12-29T04:59:43;98463;;;8.88;81.13
4326;BME280;58429;49.826;10.880;2023-12-29T05:00:42;98458;;;8.86;81.16
4326;BME280;58429;49.826;10.880;2023-12-29T05:01:43;98458;;;8.85;81.08
4326;BME280;58429;49.826;10.880;2023-12-29T05:02:42;98466;;;8.84;81.15
4326;BME280;58429;49.826;10.880;2023-12-29T05:03:43;98466;;;8.86;81.17
4326;BME280;58429;49.826;10.880;2023-12-29T05:04:46;98469;;;8.84;81.19
4326;BME280;58429;49.826;10.880;2023-12-29T05:05:42;98468;;;8.82;81.08
4326;BME280;58429;49.826;10.880;2023-12-29T05:06:42;98458;;;8.78;81.02
4326;BME280;58429;49.826;10.880;2023-12-29T05:07:43;98468;;;8.79;80.76
4326;BME280;58429;49.826;10.880;2023-12-29T05:08:43;98460;;;8.81;80.83
4326;BME280;58429;49.826;10.880;2023-12-29T05:09:43;98465;;;8.81;80.81
4326;BME280;58429;49.826;10.880;2023-12-29T05:10:42;98461;;;8.79;80.85
4326;BME280;58429;49.826;10.880;2023-12-29T05:11:43;98463;;;8.79;80.87
4326;BME280;58429;49.826;10.880;2023-12-29T05:12:43;98456;;;8.77;80.45
4326;BME280;58429;49.826;10.880;2023-12-29T05:13:43;98459;;;8.8;80.52
4326;BME280;58429;49.826;10.880;2023-12-29T05:14:43;98460;;;8.79;80.59
4326;BME280;58429;49.826;10.880;2023-12-29T05:15:43;98453;;;8.73;80.6
4326;BME280;58429;49.826;10.880;2023-12-29T05:16:43;98453;;;8.74;80.58
4326;BME280;58429;49.826;10.880;2023-12-29T05:17:43;98450;;;8.73;80.43
4326;BME280;58429;49.826;10.880;2023-12-29T05:18:43;98447;;;8.71;80.43
4326;BME280;58429;49.826;10.880;2023-12-29T05:19:43;98454;;;8.7;80.44
4326;BME280;58429;49.826;10.880;2023-12-29T05:20:43;98449;;;8.72;80.49
4326;BME280;58429;49.826;10.880;2023-12-29T05:21:43;98443;;;8.66;80.37
4326;BME280;58429;49.826;10.880;2023-12-29T05:22:42;98444;;;8.67;80.38
4326;BME280;58429;49.826;10.880;2023-12-29T05:23:43;98448;;;8.66;80.31
4326;BME280;58429;49.826;10.880;2023-12-29T05:24:43;98448;;;8.63;80.2
4326;BME280;58429;49.826;10.880;2023-12-29T05:25:43;98451;;;8.59;80.08
4326;BME280;58429;49.826;10.880;2023-12-29T05:26:48;98446;;;8.64;80.04
4326;BME280;58429;49.826;10.880;2023-12-29T05:27:42;98448;;;8.64;80.14
4326;BME280;58429;49.826;10.880;2023-12-29T05:28:43;98441;;;8.63;80.18
4326;BME280;58429;49.826;10.880;2023-12-29T05:29:43;98446;;;8.6;79.86
4326;BME280;58429;49.826;10.880;2023-12-29T05:30:43;98447;;;8.6;79.68
4326;BME280;58429;49.826;10.880;2023-12-29T05:31:43;98443;;;8.6;79.77
4326;BME280;58429;49.826;10.880;2023-12-29T05:32:43;98440;;;8.59;79.78
4326;BME280;58429;49.826;10.880;2023-12-29T05:33:43;98440;;;8.57;79.52
4326;BME280;58429;49.826;10.880;2023-12-29T05:34:42;98446;;;8.59;79.77
4326;BME280;58429;49.826;10.880;2023-12-29T05:35:43;98442;;;8.58;79.81
4326;BME280;58429;49.826;10.880;2023-12-29T05:36:42;98440;;;8.53;79.82
4326;BME280;58429;49.826;10.880;2023-12-29T05:37:43;98446;;;8.54;79.77